Home > Products > Valid Products > TAF

000
FTUS42 KFFC 020100 AAA
TAFATL
TAF AMD
KATL 020135Z 0202/0306 VRB03KT P6SM SCT150 SCT250
     FM021400 29006KT P6SM SCT035 SCT150
     FM021800 27007KT P6SM SCT050 SCT150 PROB30 0219/0223 VRB15G30KT
      5SM TSRA BKN045CB
     FM030100 VRB03KT P6SM FEW050 SCT100 SCT250=



000
FTUS42 KFFC 020000 AAA
TAFCSG
TAF AMD
KCSG 020058Z 0201/0224 09005KT P6SM SCT080 BKN150
     FM020200 00000KT P6SM SCT150 SCT250
     FM021400 31004KT P6SM SCT030 SCT150
     FM021800 28005KT P6SM SCT045 SCT150 PROB30 0219/0223 VRB15G30KT
      5SM TSRA BKN040CB=



000
FTUS42 KFFC 012300
TAFAHN
TAF
KAHN 012320Z 0200/0224 VRB05KT P6SM VCTS SCT050CB BKN150
     FM020100 00000KT P6SM FEW050 SCT150 SCT250
     FM021400 28004KT P6SM SCT035 SCT150
     FM021800 26005KT P6SM BKN050 PROB30 0219/0223 VRB15G30KT 5SM
      TSRA BKN045CB=



000
FTUS42 KFFC 012300
TAFATL
TAF
KATL 012320Z 0200/0306 VRB05KT P6SM VCTS SCT050CB BKN150
     FM020100 VRB03KT P6SM FEW050 SCT150 BKN250
     FM021400 29006KT P6SM SCT035 SCT150
     FM021800 27007KT P6SM SCT050 SCT150 PROB30 0219/0223 VRB15G30KT
      5SM TSRA BKN045CB
     FM030100 VRB03KT P6SM FEW050 SCT100 SCT250=



000
FTUS42 KFFC 012300
TAFFTY
TAF
KFTY 012320Z 0200/0224 VRB05KT P6SM VCTS SCT050CB BKN150
     FM020100 00000KT P6SM FEW050 SCT150 BKN250
     FM021400 29004KT P6SM SCT035 SCT150
     FM021800 27005KT P6SM SCT050 SCT150 PROB30 0219/0223 VRB15G30KT
      5SM TSRA BKN045CB=



000
FTUS42 KFFC 012300
TAFPDK
TAF
KPDK 012320Z 0200/0224 VRB05KT P6SM VCTS SCT050CB BKN150
     FM020100 00000KT P6SM FEW050 SCT150 BKN250
     FM021400 29005KT P6SM SCT035 SCT150
     FM021800 27006KT P6SM SCT050 SCT150 PROB30 0219/0223 VRB15G30KT
      5SM TSRA BKN045CB=



000
FTUS42 KFFC 012300
TAFCSG
TAF
KCSG 012320Z 0200/0224 VRB05KT 6SM -TSRA SCT050CB BKN080
      TEMPO 0200/0202 VRB15G30KT 3SM TSRA BKN045CB
     FM020200 00000KT P6SM FEW050 SCT150 SCT250
     FM021400 31004KT P6SM SCT030 SCT150
     FM021800 28005KT P6SM SCT045 SCT150 PROB30 0219/0223 VRB15G30KT
      5SM TSRA BKN040CB=



000
FTUS42 KFFC 012300
TAFRYY
TAF
KRYY 012320Z 0200/0224 VRB05KT P6SM VCTS SCT050CB BKN150
     FM020100 00000KT P6SM FEW050 SCT150 BKN250
     FM021400 30005KT P6SM SCT035 SCT150
     FM021800 27007KT P6SM SCT050 SCT150 PROB30 0219/0223 VRB15G30KT
      5SM TSRA BKN045CB
      AMD NOT SKED 0204/0212=



000
FTUS42 KFFC 012300
TAFMCN
TAF
KMCN 012320Z 0200/0224 VRB05KT P6SM TS SCT050CB BKN080
      TEMPO 0200/0202 VRB15G30KT 3SM TSRA BKN045CB
     FM020200 00000KT P6SM FEW050 SCT150 SCT250
     FM021400 VRB03KT P6SM SCT030 SCT150
     FM021800 VRB05KT P6SM SCT050 SCT150 PROB30 0219/0223 VRB15G30KT
      5SM TSRA BKN045CB=



000
FTUS42 KFFC 012100 AAB
TAFCSG
TAF AMD
KCSG 012142Z 0122/0218 VRB05KT P6SM VCSH BKN060 BKN150
      TEMPO 0122/0124 VRB15G30KT 3SM TSRA BKN045CB
     FM020100 20003KT P6SM FEW060 SCT150 SCT250
     FM021400 29005KT P6SM SCT035 SCT150=



000
FTUS42 KFFC 012100 AAB
TAFATL
TAF AMD
KATL 012130Z 0122/0224 20005KT P6SM VCSH SCT040 BKN070
      TEMPO 0122/0124 VRB10G20KT 5SM TSRA BKN040CB
     FM020100 VRB03KT P6SM FEW060 SCT150 BKN250
     FM021400 29006KT P6SM SCT035 SCT150
     FM021800 27007KT P6SM SCT050 SCT150 PROB30 0219/0223 5SM TSRA
      BKN045CB=



000
FTUS42 KFFC 012100 AAC
TAFMCN
TAF AMD
KMCN 012118Z 0121/0218 VRB05KT P6SM VCSH SCT050 BKN150
      TEMPO 0121/0124 VRB10G20KT 5SM TSRA BKN045CB
     FM020100 00000KT P6SM FEW060 SCT150 SCT250
     FM021400 29005KT P6SM SCT035 SCT150=



000
FTUS42 KFFC 012100 AAB
TAFAHN
TAF AMD
KAHN 012116Z 0121/0218 VRB05KT P6SM BKN050 BKN150
      TEMPO 0121/0124 VRB10G20KT 5SM TSRA BKN045CB
     FM020100 00000KT P6SM FEW060 SCT150 SCT250
     FM021400 29005KT P6SM SCT035 SCT150=



000
FTUS42 KFFC 012100 AAB
TAFRYY
TAF AMD
KRYY 012115Z 0121/0218 VRB05KT P6SM BKN050 OVC150
      TEMPO 0122/0124 VRB10G20KT 5SM TSRA BKN045CB
     FM020100 00000KT P6SM FEW060 SCT150 BKN250
     FM021400 29005KT P6SM SCT035 SCT150=



000
FTUS42 KFFC 012100 AAA
TAFPDK
TAF AMD
KPDK 012114Z 0121/0218 VRB05KT P6SM BKN050 OVC150
      TEMPO 0121/0124 VRB10G20KT 5SM TSRA BKN045CB
     FM020100 00000KT P6SM FEW060 SCT150 BKN250
     FM021400 29005KT P6SM SCT035 SCT150=



000
FTUS42 KFFC 012100 AAA
TAFFTY
TAF AMD
KFTY 012113Z 0121/0218 VRB05KT P6SM SCT045 BKN070 BKN150
      TEMPO 0121/0124 VRB10G25KT 5SM TSRA BKN045CB
     FM020100 00000KT P6SM FEW060 SCT150 BKN250
     FM021400 29005KT P6SM SCT035 SCT150=



000
FTUS42 KFFC 011900 AAA
TAFATL
TAF AMD
KATL 011947Z 0120/0224 28007KT P6SM SCT040 SCT150
      TEMPO 0120/0122 VRB10KT 5SM -TSRA BKN040CB
     FM020100 20003KT P6SM FEW060 SCT150
     FM021400 29005KT P6SM SCT035 SCT150
     FM021800 28005KT P6SM SCT050 SCT150 PROB30 0219/0222 -TSRA
      BKN050CB=



000
FTUS42 KFFC 011900 AAA
TAFRYY
TAF AMD
KRYY 011946Z 0120/0218 29007KT P6SM SCT050 SCT150
      TEMPO 0120/0122 VRB10KT 5SM -TSRA BKN040CB
     FM020100 20003KT P6SM FEW060 SCT150
     FM021400 29005KT P6SM SCT035 SCT150=



000
FTUS42 KFFC 011900 AAA
TAFCSG
TAF AMD
KCSG 011946Z 0120/0218 24007KT P6SM SCT050 SCT150
      TEMPO 0120/0122 VRB10KT 5SM -TSRA BKN040CB
     FM020100 20003KT P6SM FEW060 SCT150
     FM021400 29005KT P6SM SCT035 SCT150=



000
FTUS42 KFFC 011900 AAA
TAFAHN
TAF AMD
KAHN 011942Z 0120/0218 24007KT P6SM SCT050 SCT150
      TEMPO 0120/0122 VRB10KT 5SM -TSRA BKN040CB
     FM020100 20003KT P6SM FEW060 SCT150
     FM021400 29005KT P6SM SCT035 SCT150=



000
FTUS42 KFFC 011900 AAB
TAFMCN
TAF AMD
KMCN 011925Z 0119/0218 28004KT P6SM VCSH SCT035 SCT150
      TEMPO 0119/0122 VRB10KT 5SM -TSRA BKN040CB
     FM012200 24007KT P6SM SCT050 SCT150
     FM020100 20003KT P6SM FEW060 SCT150
     FM021400 29005KT P6SM SCT035 SCT150=



000
FTUS42 KFFC 011800 AAA
TAFMCN
TAF AMD
KMCN 011810Z 0118/0218 VRB04KT P6SM VCSH SCT050 SCT150
     FM012200 24007KT P6SM SCT050 SCT150
     FM020100 20003KT P6SM FEW060 SCT150
     FM021400 29005KT P6SM SCT035 SCT150=



000
FTUS42 KFFC 011700 RRA
TAFCSG
TAF
KCSG 011751Z 0118/0218 24007KT P6SM SCT050 SCT150
     FM020100 20003KT P6SM FEW060 SCT150
     FM021400 29005KT P6SM SCT035 SCT150=



000
FTUS42 KFFC 011700 RRA
TAFPDK
TAF
KPDK 011751Z 0118/0218 24006KT P6SM SCT050 SCT150
      TEMPO 0118/0120 VRB10KT 5SM -TSRA BKN040CB
     FM020100 20003KT P6SM FEW060 SCT150
     FM021400 29005KT P6SM SCT035 SCT150=



000
FTUS42 KFFC 011700 RRA
TAFMCN
TAF
KMCN 011751Z 0118/0218 24007KT P6SM SCT050 SCT150
     FM020100 20003KT P6SM FEW060 SCT150
     FM021400 29005KT P6SM SCT035 SCT150=



000
FTUS42 KFFC 011700 RRA
TAFATL
TAF
KATL 011751Z 0118/0224 26007KT P6SM SCT050 SCT150
      TEMPO 0118/0120 VRB10KT 5SM -TSRA BKN040CB
     FM020100 20003KT P6SM FEW060 SCT150
     FM021400 29005KT P6SM SCT035 SCT150
     FM021800 28005KT P6SM SCT050 SCT150 PROB30 0219/0222 -TSRA
      BKN050CB=



000
FTUS42 KFFC 011700 RRA
TAFFTY
TAF
KFTY 011751Z 0118/0218 24005KT P6SM SCT050 SCT150
      TEMPO 0118/0120 VRB10KT 5SM -TSRA BKN040CB
     FM020100 20003KT P6SM FEW060 SCT150
     FM021400 29005KT P6SM SCT035 SCT150=



000
FTUS42 KFFC 011700 RRA
TAFAHN
TAF
KAHN 011751Z 0118/0218 24007KT P6SM SCT050 SCT150
     FM020100 20003KT P6SM FEW060 SCT150
     FM021400 29005KT P6SM SCT035 SCT150=



000
FTUS42 KFFC 011700 RRA
TAFRYY
TAF
KRYY 011751Z 0118/0218 24007KT P6SM SCT050 SCT150
     FM020100 20003KT P6SM FEW060 SCT150
     FM021400 29005KT P6SM SCT035 SCT150=



000
FTUS42 KFFC 011700 AAD
TAFATL
TAF AMD
KATL 011707Z 0117/0218 24007KT P6SM SCT050 SCT150
      TEMPO 0117/0120 VRB10KT 5SM -TSRA BKN040CB
     FM020100 20003KT P6SM FEW060 SCT150
     FM021400 28005KT P6SM SCT040=



000
FTUS42 KFFC 011600 AAC
TAFATL
TAF AMD
KATL 011636Z 0117/0218 26004KT P6SM VCSH SCT035 BKN200
     FM011800 24006KT P6SM SCT050 SCT150
      TEMPO 0119/0122 -TSRA BKN050CB
     FM020100 20003KT P6SM FEW060 SCT150
     FM021400 28005KT P6SM SCT040=



000
FTUS42 KFFC 011500 AAB
TAFATL
TAF AMD
KATL 011555Z 0116/0218 26004KT P6SM FEW035 BKN200
     FM011800 24006KT P6SM SCT050 SCT150
      TEMPO 0119/0122 -TSRA BKN050CB
     FM020100 20003KT P6SM FEW060 SCT150
     FM021400 28005KT P6SM SCT040=



000
FTUS42 KFFC 011300 AAA
TAFATL
TAF AMD
KATL 011352Z 0114/0218 26004KT P6SM FEW035 BKN200
     FM011800 24006KT P6SM SCT050 SCT150
      TEMPO 0119/0122 -TSRA BKN050CB
     FM020100 20003KT P6SM FEW060 SCT150
     FM021400 28005KT P6SM SCT040=



000
FTUS42 KFFC 011100
TAFMCN
TAF
KMCN 011140Z 0112/0212 00000KT P6SM FEW150
     FM011400 VRB03KT P6SM SCT030 SCT150
     FM011800 25003KT P6SM SCT050 SCT150 PROB30 0121/0201 -TSRA
      BKN050CB
     FM020100 00000KT P6SM FEW060 SCT150=



000
FTUS42 KFFC 011100
TAFCSG
TAF
KCSG 011140Z 0112/0212 00000KT P6SM FEW150
     FM011400 VRB03KT P6SM SCT030 SCT150
     FM011800 23004KT P6SM SCT050 SCT150 PROB30 0121/0201 -TSRA
      BKN050CB
     FM020100 00000KT P6SM FEW060 SCT150=



000
FTUS42 KFFC 011100
TAFPDK
TAF
KPDK 011140Z 0112/0212 00000KT P6SM SCT150
     FM011400 VRB03KT P6SM SCT035 SCT150
     FM011800 24005KT P6SM SCT050 SCT150 PROB30 0121/0201 -TSRA
      BKN050CB
     FM020100 00000KT P6SM FEW060 SCT150=



000
FTUS42 KFFC 011100
TAFAHN
TAF
KAHN 011140Z 0112/0212 00000KT P6SM SCT150
     FM011400 VRB03KT P6SM SCT030 SCT150
     FM011800 24004KT P6SM SCT050 SCT150
     FM020100 00000KT P6SM FEW060 SCT150=



000
FTUS42 KFFC 011100
TAFFTY
TAF
KFTY 011140Z 0112/0212 00000KT P6SM SCT150
     FM011400 VRB03KT P6SM SCT035 SCT150
     FM011800 24005KT P6SM SCT050 SCT150 PROB30 0121/0201 -TSRA
      BKN050CB
     FM020100 00000KT P6SM FEW060 SCT150=



000
FTUS42 KFFC 011100
TAFRYY
TAF
KRYY 011140Z 0112/0212 00000KT P6SM SCT150
     FM011400 28004KT P6SM SCT035 SCT150
     FM011800 24005KT P6SM SCT050 SCT150 PROB30 0121/0201 -TSRA
      BKN050CB
     FM020100 00000KT P6SM FEW060 SCT150=



000
FTUS42 KFFC 011100
TAFATL
TAF
KATL 011140Z 0112/0218 VRB03KT P6SM SCT150
     FM011400 26004KT P6SM FEW035 SCT150
     FM011800 24006KT P6SM SCT050 SCT150 PROB30 0121/0201 -TSRA
      BKN050CB
     FM020100 20003KT P6SM FEW060 SCT150
     FM021400 28005KT P6SM SCT040=



000
FTUS42 KFFC 010900 AAB
TAFATL
TAF AMD
KATL 010950Z 0110/0212 VRB03KT P6SM SCT150
     FM011400 26004KT P6SM FEW035 SCT150
     FM011800 24006KT P6SM SCT050 SCT150 PROB30 0121/0201 -TSRA
      BKN050CB
     FM020100 20003KT P6SM FEW060 SCT150=



000
FTUS42 KFFC 010700 AAA
TAFATL
TAF AMD
KATL 010733Z 0108/0212 VRB03KT P6SM SCT150
     FM011400 26004KT P6SM FEW035 SCT150
     FM011800 24006KT P6SM SCT050 SCT150 PROB30 0120/0124 -TSRA
      BKN050CB
     FM020100 20003KT P6SM FEW060 SCT150=



000
FTUS42 KFFC 010500 CCA
TAFATL
TAF COR
KATL 010548Z 0106/0212 VRB03KT P6SM SCT250
     FM011400 26004KT P6SM SCT035 SCT250
     FM011800 24006KT P6SM SCT050 SCT150 PROB30 0120/0124 -TSRA
      BKN050CB
     FM020100 20003KT P6SM FEW060 SCT150=



000
FTUS42 KFFC 010500 RRA
TAFPDK
TAF
KPDK 010542Z 0106/0206 00000KT P6SM SCT150
      TEMPO 0109/0113 4SM BR
     FM011400 VRB03KT P6SM SCT035 SCT150
     FM011800 24005KT P6SM SCT050 SCT150 PROB30 0120/0124 -TSRA
      BKN050CB
     FM020100 00000KT P6SM FEW060 SCT150=



000
FTUS42 KFFC 010500 RRA
TAFFTY
TAF
KFTY 010542Z 0106/0206 00000KT P6SM SCT150
      TEMPO 0109/0113 4SM BR
     FM011400 VRB03KT P6SM SCT035 SCT150
     FM011800 24005KT P6SM SCT050 SCT150 PROB30 0120/0124 -TSRA
      BKN050CB
     FM020100 00000KT P6SM FEW060 SCT150=



000
FTUS42 KFFC 010500 RRA
TAFMCN
TAF
KMCN 010542Z 0106/0206 00000KT P6SM FEW060 FEW150
      TEMPO 0109/0113 4SM BR
     FM011400 VRB03KT P6SM SCT030 SCT150
     FM011800 25003KT P6SM SCT050 SCT150 PROB30 0120/0124 -TSRA
      BKN050CB
     FM020100 00000KT P6SM FEW060 SCT150=



000
FTUS42 KFFC 010500 RRA
TAFCSG
TAF
KCSG 010542Z 0106/0206 00000KT P6SM FEW060 FEW150
      TEMPO 0109/0113 4SM BR
     FM011400 VRB03KT P6SM SCT030 SCT150
     FM011800 23004KT P6SM SCT050 SCT250 PROB30 0120/0124 -TSRA
      BKN050CB
     FM020100 00000KT P6SM FEW060 SCT150=



000
FTUS42 KFFC 010500 RRA
TAFRYY
TAF
KRYY 010542Z 0106/0206 00000KT P6SM SCT150
      TEMPO 0109/0113 4SM BR
     FM011400 28004KT P6SM SCT035 SCT250
     FM011800 24005KT P6SM SCT050 SCT150 PROB30 0120/0124 -TSRA
      BKN050CB
     FM020100 00000KT P6SM FEW060 SCT150
      AMD NOT SKED TIL 011200=



000
FTUS42 KFFC 010500 RRA
TAFATL
TAF
KATL 010542Z 0106/0212 VRB03KT P6SM SCT250
     FM011400 26004KT P6SM SCT035 SCT250
     FM011800 24006KT P6SM SCT050 SCT150 PROB30 0120/0124 -TSRA
      BKN050CB
     FM020100 18005KT P6SM FEW060 SCT150=



000
FTUS42 KFFC 010500 RRA
TAFAHN
TAF
KAHN 010542Z 0106/0206 00000KT P6SM SCT150
      TEMPO 0109/0113 4SM BR
     FM011400 VRB03KT P6SM SCT030 SCT250
     FM011800 24004KT P6SM SCT050 SCT150
     FM020100 00000KT P6SM FEW060 SCT150=



000
FTUS42 KFFC 010300 AAB
TAFATL
TAF AMD
KATL 010330Z 0104/0206 VRB03KT P6SM SCT250
     FM011400 26004KT P6SM SCT035 SCT250
     FM011800 24006KT P6SM SCT050 SCT150
     FM020100 18005KT P6SM FEW060 SCT150=



000
FTUS42 KFFC 010200 AAC
TAFMCN
TAF AMD
KMCN 010241Z 0103/0124 VRB05KT P6SM VCSH SCT060 BKN150
     FM010400 00000KT P6SM FEW060 SCT150 SCT250
     FM011400 VRB03KT P6SM SCT030 SCT150
     FM011800 VRB05KT P6SM SCT050 SCT150=



000
FTUS42 KFFC 010100 AAB
TAFMCN
TAF AMD
KMCN 010149Z 0102/0124 VRB05KT P6SM VCTS BKN060CB
     FM010300 VRB03KT P6SM VCSH SCT060 BKN150
     FM010400 00000KT P6SM FEW060 SCT150 SCT250
     FM011400 VRB03KT P6SM SCT030 SCT150
     FM011800 VRB05KT P6SM SCT050 SCT150=



000
FTUS42 KFFC 010100 AAA
TAFATL
TAF AMD
KATL 010130Z 0102/0206 VRB03KT P6SM SCT250
     FM011400 26004KT P6SM SCT035 SCT250
     FM011800 24006KT P6SM SCT050 SCT150
     FM020100 18005KT P6SM FEW060 SCT100=



000
FTUS42 KFFC 010000 AAA
TAFMCN
TAF AMD
KMCN 010026Z 0100/0124 VRB04KT P6SM VCTS SCT060CB SCT150
      TEMPO 0100/0102 VRB15G25KT 5SM TSRA BKN045CB
     FM010200 00000KT P6SM FEW060 FEW150
     FM011400 VRB03KT P6SM SCT030 SCT150
     FM011800 VRB05KT P6SM SCT050 SCT150=



000
FTUS42 KFFC 312300
TAFCSG
TAF
KCSG 312320Z 0100/0124 VRB03KT P6SM VCSH SCT060 SCT150
     FM010200 00000KT P6SM FEW060 FEW150
     FM011400 VRB03KT P6SM SCT030 SCT150
     FM011800 24005KT P6SM SCT050 SCT250=



000
FTUS42 KFFC 312300
TAFMCN
TAF
KMCN 312320Z 0100/0124 VRB04KT P6SM VCTS SCT060CB SCT150
     FM010200 00000KT P6SM FEW060 FEW150
     FM011400 VRB03KT P6SM SCT030 SCT150
     FM011800 VRB05KT P6SM SCT050 SCT150=



000
FTUS42 KFFC 312300
TAFPDK
TAF
KPDK 312320Z 0100/0124 00000KT P6SM FEW250
     FM011400 VRB03KT P6SM SCT035 SCT250
     FM011800 26006KT P6SM SCT050 SCT150=



000
FTUS42 KFFC 312300
TAFATL
TAF
KATL 312320Z 0100/0206 27004KT P6SM FEW050 SCT250
     FM010100 VRB03KT P6SM FEW250
     FM011400 26004KT P6SM SCT035 SCT250
     FM011800 24006KT P6SM SCT050 SCT150
     FM020100 18005KT P6SM FEW060 SCT100=



000
FTUS42 KFFC 312300
TAFAHN
TAF
KAHN 312320Z 0100/0124 00000KT P6SM FEW250
      TEMPO 0109/0113 3SM BR
     FM011400 VRB03KT P6SM SCT030 SCT250
     FM011800 VRB04KT P6SM SCT050 SCT150=



000
FTUS42 KFFC 312300
TAFFTY
TAF
KFTY 312320Z 0100/0124 00000KT P6SM FEW250
     FM011400 VRB03KT P6SM SCT035 SCT250
     FM011800 25005KT P6SM SCT050 SCT150=



000
FTUS42 KFFC 312300
TAFRYY
TAF
KRYY 312320Z 0100/0124 00000KT P6SM FEW060 SCT250
     FM011400 28004KT P6SM SCT035 SCT250
     FM011800 26006KT P6SM SCT050 SCT150
      AMD NOT SKED 0104/0112=



000
FTUS42 KFFC 312100 AAC
TAFATL
TAF AMD
KATL 312131Z 3122/0124 22005KT P6SM FEW050 SCT250
     FM010100 VRB03KT P6SM FEW250
     FM011400 26004KT P6SM SCT040 SCT250
     FM011800 24006KT P6SM SCT050 SCT250
     FM012100 23006KT P6SM SCT060 SCT250=



000
FTUS42 KFFC 312100 AAC
TAFATL
TAF AMD
KATL 312131Z 3122/0124 22005KT P6SM FEW050 SCT250
     FM010100 VRB03KT P6SM FEW250
     FM011400 26004KT P6SM SCT040 SCT250
     FM011800 24006KT P6SM SCT050 SCT250
     FM012100 23006KT P6SM SCT060 SCT250=



000
FTUS42 KFFC 311900 AAB
TAFFTY
TAF AMD
KFTY 311949Z 3120/0118 22005KT P6SM SCT035 BKN250
      TEMPO 3120/3121 5SM -TSRA BR BKN040CB
     FM010100 00000KT P6SM FEW050 SCT250
     FM011400 25005KT P6SM SCT050 SCT250=



000
FTUS42 KFFC 311900 AAB
TAFPDK
TAF AMD
KPDK 311949Z 3120/0118 22005KT P6SM SCT040
      TEMPO 3120/3121 5SM -TSRA BR BKN040CB
     FM312300 22005KT P6SM SCT050 SCT250
     FM010100 00000KT P6SM FEW050 SCT250
     FM011400 25005KT P6SM SCT050 SCT250=



000
FTUS42 KFFC 311900 AAB
TAFATL
TAF AMD
KATL 311949Z 3120/0124 23007KT P6SM BKN040 BKN250
      TEMPO 3120/3121 5SM -TSRA BR BKN040CB
     FM010100 25003KT P6SM FEW050 SCT250
     FM011400 25005KT P6SM SCT050 SCT250
     FM012300 23005KT P6SM SCT060=



000
FTUS42 KFFC 311900 AAA
TAFRYY
TAF AMD
KRYY 311942Z 3120/0118 23008KT P6SM SCT040
      TEMPO 3120/3122 5SM -TSRA BR BKN040CB
     FM010100 00000KT P6SM FEW050 SCT250
     FM011400 25005KT P6SM SCT050 SCT250=



000
FTUS42 KFFC 311900 AAA
TAFATL
TAF AMD
KATL 311902Z 3119/0124 23007KT P6SM BKN035 BKN250
      TEMPO 3119/3121 5SM -TSRA BR BKN040CB
     FM010100 25003KT P6SM FEW050 SCT250
     FM011400 25005KT P6SM SCT050 SCT250
     FM012300 23005KT P6SM SCT060=



000
FTUS42 KFFC 311900 AAA
TAFPDK
TAF AMD
KPDK 311902Z 3119/0118 22005KT P6SM BKN035
      TEMPO 3119/3121 5SM -TSRA BR BKN040CB
     FM312300 22005KT P6SM SCT050 SCT250
     FM010100 00000KT P6SM FEW050 SCT250
     FM011400 25005KT P6SM SCT050 SCT250=



000
FTUS42 KFFC 311900 AAA
TAFFTY
TAF AMD
KFTY 311902Z 3119/0118 22005KT P6SM SCT035 BKN050
      TEMPO 3119/3121 5SM -TSRA BR BKN040CB
     FM010100 00000KT P6SM FEW050 SCT250
     FM011400 25005KT P6SM SCT050 SCT250=



000
FTUS42 KFFC 311700
TAFCSG
TAF
KCSG 311729Z 3118/0118 24006KT P6SM SCT040
     FM010100 00000KT P6SM SCT050
     FM011400 20005KT P6SM SCT050 SCT250=



000
FTUS42 KFFC 311700
TAFMCN
TAF
KMCN 311729Z 3118/0118 20005KT P6SM SCT040
     FM010100 00000KT P6SM FEW050 SCT250
     FM011400 20005KT P6SM SCT050 SCT250=



000
FTUS42 KFFC 311700
TAFRYY
TAF
KRYY 311729Z 3118/0118 22005KT P6SM BKN035
     FM010100 00000KT P6SM FEW050 SCT250
     FM011400 25005KT P6SM SCT050 SCT250=



000
FTUS42 KFFC 311700
TAFAHN
TAF
KAHN 311729Z 3118/0118 22005KT P6SM SCT050
     FM010100 00000KT P6SM FEW050 SCT250
     FM011400 25005KT P6SM SCT050 SCT250=



000
FTUS42 KFFC 311700
TAFATL
TAF
KATL 311729Z 3118/0124 23007KT P6SM BKN035 BKN250
     FM010100 25003KT P6SM FEW050 SCT250
     FM011400 25005KT P6SM SCT050 SCT250
     FM012300 23005KT P6SM SCT060=



000
FTUS42 KFFC 311700
TAFPDK
TAF
KPDK 311729Z 3118/0118 22005KT P6SM BKN035
     FM312300 22005KT P6SM SCT050 SCT250
     FM010100 00000KT P6SM FEW050 SCT250
     FM011400 25005KT P6SM SCT050 SCT250=



000
FTUS42 KFFC 311700
TAFFTY
TAF
KFTY 311729Z 3118/0118 22005KT P6SM SCT035 BKN050
     FM010100 00000KT P6SM FEW050 SCT250
     FM011400 25005KT P6SM SCT050 SCT250=



000
FTUS42 KFFC 311600 AAD
TAFAHN
TAF AMD
KAHN 311659Z 3117/0112 21004KT P6SM SCT025 SCT150
     FM311800 24006KT P6SM SCT060 SCT150
     FM010100 00000KT P6SM FEW050 SCT250=



000
FTUS42 KFFC 311600 AAB
TAFPDK
TAF AMD
KPDK 311659Z 3117/0112 23005KT P6SM SCT025 BKN035
     FM311800 24007KT P6SM BKN045 BKN150
     FM010100 00000KT P6SM FEW050 SCT250=



000
FTUS42 KFFC 311600 AAC
TAFATL
TAF AMD
KATL 311600Z 3116/0118 17003KT P6SM SCT025 SCT150
     FM311800 24007KT P6SM SCT060 SCT150
     FM010100 25003KT P6SM FEW050 SCT250
     FM011400 25005KT P6SM SCT050 SCT250=



000
FTUS42 KFFC 311600 AAC
TAFAHN
TAF AMD
KAHN 311600Z 3116/0112 21004KT P6SM SCT020 SCT150
      TEMPO 3116/3118 BKN009
     FM311800 24006KT P6SM SCT060 SCT150
     FM010100 00000KT P6SM FEW050 SCT250=



000
FTUS42 KFFC 311500 AAC
TAFFTY
TAF AMD
KFTY 311559Z 3116/0112 23004KT P6SM SCT025 BKN035
     FM311800 24007KT P6SM SCT045 BKN060
     FM010100 00000KT P6SM FEW050 SCT250=



000
FTUS42 KFFC 311500 AAB
TAFAHN
TAF AMD
KAHN 311508Z 3115/0112 VRB03KT P6SM SCT005 BKN070
      TEMPO 3115/3116 BKN005
     FM311600 21004KT P6SM SCT020 SCT150
     FM311800 24006KT P6SM SCT060 SCT150
     FM010100 00000KT P6SM FEW050 SCT250=



000
FTUS42 KFFC 311400 AAB
TAFATL
TAF AMD
KATL 311421Z 3114/0118 VRB03KT P6SM FEW006 BKN150
     FM311530 23005KT P6SM SCT025 SCT150
     FM311800 24007KT P6SM SCT060 SCT150
     FM010100 25003KT P6SM FEW050 SCT250
     FM011400 25005KT P6SM SCT050 SCT250=



000
FTUS42 KFFC 311300 AAB
TAFFTY
TAF AMD
KFTY 311355Z 3114/0112 00000KT 6SM BR SCT005 BKN100
      TEMPO 3114/3115 4SM BR BKN005
     FM311500 23004KT P6SM SCT025 SCT150
     FM311800 24007KT P6SM SCT060 SCT150
     FM010100 00000KT P6SM FEW050 SCT250=



000
FTUS42 KFFC 311300 AAA
TAFCSG
TAF AMD
KCSG 311303Z 3113/0112 00000KT P6SM SCT010 SCT040
     FM311400 23003KT P6SM SCT020 SCT150
     FM311800 24006KT P6SM BKN050
     FM010100 00000KT P6SM SCT050=



000
FTUS42 KFFC 311300 AAA
TAFAHN
TAF AMD
KAHN 311302Z 3113/0112 00000KT 6SM BR SCT003 BKN070
      TEMPO 3113/3115 BKN005
     FM311500 21004KT P6SM SCT020 SCT150
     FM311800 24006KT P6SM SCT060 SCT150
     FM010100 00000KT P6SM FEW050 SCT250=



000
FTUS42 KFFC 311300 AAA
TAFFTY
TAF AMD
KFTY 311301Z 3113/0112 00000KT 6SM BR SCT003 BKN100
      TEMPO 3113/3114 1SM BR BKN003
     FM311400 23004KT P6SM SCT025 SCT150
     FM311800 24007KT P6SM SCT060 SCT150
     FM010100 00000KT P6SM FEW050 SCT250=



000
FTUS42 KFFC 311300 AAA
TAFATL
TAF AMD
KATL 311301Z 3113/0118 VRB03KT 6SM BR SCT003 BKN100
      TEMPO 3113/3114 1SM BR BKN003
     FM311400 23005KT P6SM SCT025 SCT150
     FM311800 24007KT P6SM SCT060 SCT150
     FM010100 25003KT P6SM FEW050 SCT250
     FM011400 25005KT P6SM SCT050 SCT250=



000
FTUS42 KFFC 311300 AAA
TAFPDK
TAF AMD
KPDK 311301Z 3113/0112 00000KT 4SM BR SCT003 BKN100
      TEMPO 3113/3114 BKN002
     FM311400 23005KT P6SM SCT025 SCT150
     FM311800 24007KT P6SM SCT060 SCT150
     FM010100 00000KT P6SM FEW050 SCT250=



000
FTUS42 KFFC 311100
TAFRYY
TAF
KRYY 311138Z 3112/0112 00000KT 6SM BR SCT003 BKN100
      TEMPO 3112/3113 2SM BR BKN002
     FM311400 24005KT P6SM SCT025 SCT150
     FM311800 25007KT P6SM SCT060 SCT150
     FM010100 00000KT P6SM FEW050 SCT250=



000
FTUS42 KFFC 311100
TAFMCN
TAF
KMCN 311138Z 3112/0112 00000KT 5SM BR SCT010 BKN100
     FM311400 23003KT P6SM SCT020 SCT150
     FM311800 23005KT P6SM BKN050 PROB30 3121/3124 6SM TSRA BKN050CB
     FM010100 00000KT P6SM SCT050=



000
FTUS42 KFFC 311100
TAFATL
TAF
KATL 311138Z 3112/0118 VRB03KT 6SM BR SCT003 BKN100
      TEMPO 3112/3113 3SM BR BKN003
     FM311400 23005KT P6SM SCT025 SCT150
     FM311800 24007KT P6SM SCT060 SCT150
     FM010100 25003KT P6SM FEW050 SCT250
     FM011400 25005KT P6SM SCT050 SCT250=



000
FTUS42 KFFC 311100
TAFCSG
TAF
KCSG 311138Z 3112/0112 00000KT 4SM BR SCT010 SCT040
     FM311400 23003KT P6SM SCT020 SCT150
     FM311800 24006KT P6SM BKN050
     FM010100 00000KT P6SM SCT050=



000
FTUS42 KFFC 311100
TAFAHN
TAF
KAHN 311138Z 3112/0112 00000KT 6SM BR SCT003 BKN070
      TEMPO 3112/3113 3SM BR BKN003
     FM311400 21004KT P6SM SCT020 SCT150
     FM311800 24006KT P6SM SCT060 SCT150
     FM010100 00000KT P6SM FEW050 SCT250=



000
FTUS42 KFFC 311100
TAFPDK
TAF
KPDK 311138Z 3112/0112 00000KT 4SM BR SCT003 BKN100
      TEMPO 3112/3113 1/2SM FG BKN002
     FM311400 23005KT P6SM SCT025 SCT150
     FM311800 24007KT P6SM SCT060 SCT150
     FM010100 00000KT P6SM FEW050 SCT250=



000
FTUS42 KFFC 311100
TAFFTY
TAF
KFTY 311138Z 3112/0112 00000KT 6SM BR SCT003 BKN100
      TEMPO 3112/3113 2SM BR BKN002
     FM311400 23004KT P6SM SCT025 SCT150
     FM311800 24007KT P6SM SCT060 SCT150
     FM010100 00000KT P6SM FEW050 SCT250=



000
FTUS42 KFFC 311000 AAB
TAFRYY
TAF AMD
KRYY 311043Z 3111/0106 00000KT 6SM BR SCT003 BKN100
      TEMPO 3111/3113 2SM BR BKN002
     FM311400 24005KT P6SM SCT025 SCT150
     FM311800 25007KT P6SM SCT060 SCT150
     FM010100 00000KT P6SM FEW050 SCT250
      AMD NOT SKED TIL 311200=



000
FTUS42 KFFC 311000 AAB
TAFAHN
TAF AMD
KAHN 311043Z 3111/0106 00000KT 6SM BR SCT003 BKN070
      TEMPO 3111/3113 3SM BR BKN003
     FM311400 21004KT P6SM SCT020 SCT150
     FM311800 24006KT P6SM SCT060 SCT150
     FM010100 00000KT P6SM FEW050 SCT250=



000
FTUS42 KFFC 311000 AAB
TAFFTY
TAF AMD
KFTY 311043Z 3111/0106 00000KT 6SM BR SCT003 BKN100
      TEMPO 3111/3113 2SM BR BKN002
     FM311400 23004KT P6SM SCT025 SCT150
     FM311800 24007KT P6SM SCT060 SCT150
     FM010100 00000KT P6SM FEW050 SCT250=



000
FTUS42 KFFC 311000 AAA
TAFPDK
TAF AMD
KPDK 311043Z 3111/0106 00000KT 4SM BR SCT003 BKN100
      TEMPO 3111/3113 2SM BR BKN002
     FM311400 23005KT P6SM SCT025 SCT150
     FM311800 24007KT P6SM SCT060 SCT150
     FM010100 00000KT P6SM FEW050 SCT250=



000
FTUS42 KFFC 311000 AAC
TAFATL
TAF AMD
KATL 311019Z 3110/0112 VRB03KT P6SM SCT003 BKN100
      TEMPO 3110/3113 3SM BR BKN003
     FM311400 23005KT P6SM SCT025 SCT250
     FM311800 24007KT P6SM SCT060 SCT150
     FM010100 25003KT P6SM FEW050 SCT250=



000
FTUS42 KFFC 310900 AAB
TAFATL
TAF AMD
KATL 310948Z 3110/0112 VRB03KT P6SM FEW040 BKN100
      TEMPO 3110/3113 4SM BR SCT012
     FM311400 23005KT P6SM SCT025 SCT250
     FM311800 24007KT P6SM SCT060 SCT150
     FM010100 25003KT P6SM FEW050 SCT250=



000
FTUS42 KFFC 310900 AAA
TAFRYY
TAF AMD
KRYY 310911Z 3109/0106 00000KT P6SM SCT006 BKN100
      TEMPO 3109/3111 2SM BR BKN002
     FM311100 00000KT 4SM BR SCT012 SCT250
     FM311400 24005KT P6SM SCT025 SCT250
     FM311800 25007KT P6SM SCT060 SCT150
     FM010100 00000KT P6SM FEW050 SCT250
      AMD NOT SKED TIL 311200=



000
FTUS42 KFFC 310900 AAA
TAFFTY
TAF AMD
KFTY 310908Z 3109/0106 00000KT P6SM SCT006 BKN100
      TEMPO 3109/3111 2SM BR BKN002
     FM311100 00000KT 4SM BR SCT012 SCT250
     FM311400 23004KT P6SM SCT025 SCT250
     FM311800 24007KT P6SM SCT060 SCT150
     FM010100 00000KT P6SM FEW050 SCT250=



000
FTUS42 KFFC 310800 AAA
TAFMCN
TAF AMD
KMCN 310845Z 3109/0106 VRB03KT P6SM SCT005 BKN100
      TEMPO 3109/3111 4SM BR BKN004
     FM311100 00000KT 4SM BR SCT010 SCT150
     FM311400 23003KT P6SM SCT020 SCT150
     FM311800 23005KT P6SM BKN050 PROB30 3120/3124 6SM TSRA BKN050CB
     FM010100 00000KT P6SM SCT050=



000
FTUS42 KFFC 310800 AAA
TAFAHN
TAF AMD
KAHN 310812Z 3108/0106 VRB03KT P6SM SCT008 BKN070
      TEMPO 3108/3110 6SM -SHRA BKN006
     FM311000 00000KT 4SM BR BKN008
     FM311400 21004KT P6SM SCT020 SCT250
     FM311800 24006KT P6SM SCT045 SCT150=



000
FTUS42 KFFC 310700 AAA
TAFATL
TAF AMD
KATL 310753Z 3108/0112 VRB03KT P6SM FEW040 BKN100
      TEMPO 3109/3113 4SM BR SCT012
     FM311400 23005KT P6SM SCT025 SCT250
     FM311800 24007KT P6SM SCT060 SCT150
     FM010100 25003KT P6SM FEW050 SCT250=



000
FTUS42 KFFC 310500 RRA
TAFCSG
TAF
KCSG 310543Z 3106/0106 00000KT P6SM FEW050 SCT100
     FM311000 00000KT 4SM BR SCT010 SCT150
     FM311400 23003KT P6SM SCT020 SCT150
     FM311800 24006KT P6SM BKN050
     FM010100 00000KT P6SM SCT050=



000
FTUS42 KFFC 310500 RRA
TAFPDK
TAF
KPDK 310543Z 3106/0106 00000KT P6SM FEW040 BKN100
     FM311000 00000KT 4SM BR SCT012 SCT250
     FM311400 23005KT P6SM SCT025 SCT250
     FM311800 24007KT P6SM SCT060 SCT150
     FM010100 00000KT P6SM FEW050 SCT250=



000
FTUS42 KFFC 310500 RRA
TAFATL
TAF
KATL 310543Z 3106/0112 VRB03KT P6SM FEW040 BKN100
      TEMPO 3109/3113 4SM BR SCT012
     FM311400 23005KT P6SM SCT025 SCT250
     FM311800 24007KT P6SM SCT060 SCT150
     FM010100 25003KT P6SM FEW050 SCT250=



000
FTUS42 KFFC 310500 RRA
TAFAHN
TAF
KAHN 310543Z 3106/0106 VRB03KT P6SM VCSH SCT015 BKN070
      TEMPO 3106/3107 VRB12G20KT -TSRA BKN020CB
     FM310700 00000KT P6SM FEW050 BKN100
     FM311000 00000KT 4SM BR SCT010 SCT200
     FM311400 21004KT P6SM SCT020 SCT250
     FM311800 24006KT P6SM SCT045 SCT150=



000
FTUS42 KFFC 310500 RRA
TAFMCN
TAF
KMCN 310543Z 3106/0106 VRB03KT P6SM VCSH SCT035 BKN060
      TEMPO 3106/3107 VRB12G20KT 4SM TSRA BKN045CB
     FM310800 00000KT P6SM FEW050 BKN100
     FM311000 00000KT 3SM BR SCT010 SCT150
     FM311400 23003KT P6SM SCT020 SCT150
     FM311800 23005KT P6SM BKN050 PROB30 3120/3124 6SM TSRA BKN050CB
     FM010100 00000KT P6SM SCT050=



000
FTUS42 KFFC 310500 RRA
TAFFTY
TAF
KFTY 310543Z 3106/0106 00000KT P6SM FEW040 BKN100
     FM311000 00000KT 4SM BR SCT012 SCT250
     FM311400 23004KT P6SM SCT025 SCT250
     FM311800 24007KT P6SM SCT060 SCT150
     FM010100 00000KT P6SM FEW050 SCT250=



000
FTUS42 KFFC 310500 RRA
TAFRYY
TAF
KRYY 310543Z 3106/0106 00000KT P6SM FEW040 BKN100
     FM311000 00000KT 4SM BR FEW025 SCT250
     FM311400 24005KT P6SM SCT025 SCT250
     FM311800 25007KT P6SM SCT060 SCT150
     FM010100 00000KT P6SM FEW050 SCT250
      AMD NOT SKED TIL 311200=



000
FTUS42 KFFC 310400 AAC
TAFMCN
TAF AMD
KMCN 310428Z 3104/3124 VRB03KT P6SM VCSH BKN060
      TEMPO 3104/3105 VRB12G20KT 4SM TSRA BKN045CB
     FM310700 00000KT P6SM FEW050 BKN100
     FM311000 00000KT 3SM BR SCT010 SCT150
     FM311400 23003KT P6SM SCT020 SCT150
     FM311800 23005KT P6SM SCT050 SCT150=



000
FTUS42 KFFC 310300 AAD
TAFATL
TAF AMD
KATL 310347Z 3104/0106 VRB03KT P6SM -SHRA FEW008 SCT030 BKN080
     FM310500 VRB03KT P6SM FEW035 BKN100
      TEMPO 3109/3113 5SM BR
     FM311400 23005KT P6SM SCT025 SCT250
     FM311800 24007KT P6SM SCT050 SCT150 PROB30 3120/3124 6SM TSRA
      BKN040CB
     FM010000 25004KT P6SM FEW050 SCT250=



000
FTUS42 KFFC 310300 AAC
TAFPDK
TAF AMD
KPDK 310341Z 3104/3124 VRB05KT P6SM VCTS BKN045CB BKN080
     FM310500 00000KT P6SM FEW040 BKN100
     FM311000 00000KT 4SM BR FEW025 SCT250
     FM311400 23005KT P6SM SCT025 SCT250
     FM311800 24007KT P6SM SCT050 SCT150=



000
FTUS42 KFFC 310300 AAC
TAFATL
TAF AMD
KATL 310333Z 3104/0106 VRB05KT P6SM -TSRA FEW008 SCT030CB BKN080
     FM310500 VRB03KT P6SM FEW035 BKN100
      TEMPO 3109/3113 5SM BR
     FM311400 23005KT P6SM SCT025 SCT250
     FM311800 24007KT P6SM SCT050 SCT150 PROB30 3120/3124 6SM TSRA
      BKN040CB
     FM010000 25004KT P6SM FEW050 SCT250=



000
FTUS42 KFFC 310300 AAB
TAFAHN
TAF AMD
KAHN 310300Z 3103/3124 VRB03KT P6SM VCSH SCT050 BKN080
      TEMPO 3103/3106 VRB15G25KT 3SM TSRA BKN040CB
     FM310600 00000KT P6SM FEW050 BKN100
     FM311000 00000KT 4SM BR SCT010 SCT200
     FM311400 21004KT P6SM SCT020 SCT250
     FM311800 24006KT P6SM SCT045 SCT150=



000
FTUS42 KFFC 310200 AAB
TAFMCN
TAF AMD
KMCN 310259Z 3103/3124 VRB03KT P6SM VCSH SCT050 BKN080
      TEMPO 3103/3105 VRB15G25KT 3SM TSRA BKN045CB
     FM310500 00000KT P6SM FEW050 BKN100
     FM311000 00000KT 3SM BR SCT010 SCT150
     FM311400 23003KT P6SM SCT020 SCT150
     FM311800 23005KT P6SM SCT050 SCT150=



000
FTUS42 KFFC 310200 AAB
TAFFTY
TAF AMD
KFTY 310213Z 3102/3124 VRB03KT P6SM VCSH SCT040 BKN080
      TEMPO 3102/3104 VRB15G25KT 3SM TSRA BKN040CB
     FM310400 00000KT P6SM FEW040 BKN100
     FM311000 00000KT 4SM BR FEW025 SCT250
     FM311400 23004KT P6SM SCT025 SCT250
     FM311800 24007KT P6SM SCT050 SCT150=



000
FTUS42 KFFC 310200 AAB
TAFPDK
TAF AMD
KPDK 310212Z 3102/3124 VRB03KT P6SM VCSH SCT040 BKN080
      TEMPO 3102/3104 VRB15G25KT 3SM TSRA BKN040CB
     FM310500 00000KT P6SM FEW040 BKN100
     FM311000 00000KT 4SM BR FEW025 SCT250
     FM311400 23005KT P6SM SCT025 SCT250
     FM311800 24007KT P6SM SCT050 SCT150=



000
FTUS42 KFFC 310200 AAB
TAFRYY
TAF AMD
KRYY 310212Z 3102/3124 VRB04KT P6SM VCSH SCT040 BKN080
      TEMPO 3102/3104 VRB15G25KT 3SM TSRA BKN040CB
     FM310400 00000KT P6SM FEW040 BKN100
     FM311000 00000KT 4SM BR FEW025 SCT250
     FM311400 24005KT P6SM SCT025 SCT250
     FM311800 25007KT P6SM SCT050 SCT150 PROB30 3120/3124 -TSRA
      BKN050CB
      AMD NOT SKED 3104/3112=



000
FTUS42 KFFC 310100 AAA
TAFCSG
TAF AMD
KCSG 310139Z 3102/3124 VRB03KT P6SM -SHRA SCT050 BKN100
      TEMPO 3102/3103 VRB15G25KT 3SM TSRA BKN045CB
     FM310500 00000KT P6SM FEW050 SCT100
     FM311000 00000KT 5SM BR FEW010 SCT150
     FM311400 23003KT P6SM SCT020 SCT150
     FM311800 24006KT P6SM SCT045 SCT150=



000
FTUS42 KFFC 310100 AAB
TAFATL
TAF AMD
KATL 310137Z 3102/0106 VRB03KT P6SM VCSH SCT040 BKN100
      TEMPO 3102/3104 VRB15G25KT 3SM TSRA BKN040CB
     FM310500 VRB03KT P6SM FEW040 BKN100
     FM311400 23005KT P6SM SCT025 SCT250
     FM311800 24007KT P6SM SCT050 SCT150 PROB30 3120/3124 6SM TSRA
      BKN040CB
     FM010000 25004KT P6SM FEW050 SCT250=



000
FTUS42 KFFC 310100 AAA
TAFMCN
TAF AMD
KMCN 310133Z 3102/3124 VRB03KT P6SM VCSH SCT050 BKN100
      TEMPO 3102/3104 VRB15G25KT 3SM TSRA BKN045CB
     FM310400 00000KT P6SM FEW050 BKN100
     FM311000 00000KT 3SM BR SCT010 SCT150
     FM311400 23003KT P6SM SCT020 SCT150
     FM311800 23005KT P6SM SCT050 SCT150=



000
FTUS42 KFFC 310100 AAA
TAFAHN
TAF AMD
KAHN 310132Z 3102/3124 VRB03KT P6SM VCSH SCT050 BKN100
      TEMPO 3102/3104 VRB15G25KT 3SM TSRA BKN040CB
     FM310400 00000KT P6SM FEW050 BKN100
     FM311000 00000KT 4SM BR SCT010 SCT200
     FM311400 21004KT P6SM SCT020 SCT250
     FM311800 24006KT P6SM SCT045 SCT150=



000
FTUS42 KFFC 310000 AAA
TAFATL
TAF AMD
KATL 310057Z 3101/0106 15003KT P6SM VCSH SCT040 BKN100
      TEMPO 3101/3103 VRB15G25KT 3SM TSRA BKN040CB
     FM310300 VRB03KT P6SM FEW040 BKN100
     FM311400 23005KT P6SM SCT025 SCT250
     FM311800 24007KT P6SM SCT050 SCT150 PROB30 3120/3124 6SM TSRA
      BKN040CB
     FM010000 25004KT P6SM FEW050 SCT250=



000
FTUS42 KFFC 310000 AAA
TAFPDK
TAF AMD
KPDK 310054Z 3101/3124 VRB03KT P6SM VCSH SCT040 BKN100
      TEMPO 3101/3103 VRB15G25KT 3SM TSRA BKN040CB
     FM310300 00000KT P6SM FEW040 BKN100
     FM311000 00000KT 4SM BR FEW025 SCT250
     FM311400 23005KT P6SM SCT025 SCT250
     FM311800 24007KT P6SM SCT050 SCT150=



000
FTUS42 KFFC 310000 AAA
TAFRYY
TAF AMD
KRYY 310054Z 3101/3124 VRB04KT P6SM VCSH SCT040 BKN100
      TEMPO 3101/3103 VRB15G25KT 3SM TSRA BKN040CB
     FM310300 00000KT P6SM FEW040 BKN100
     FM311000 00000KT 4SM BR FEW025 SCT250
     FM311400 24005KT P6SM SCT025 SCT250
     FM311800 25007KT P6SM SCT050 SCT150 PROB30 3120/3124 -TSRA
      BKN050CB
      AMD NOT SKED 3104/3112=



000
FTUS42 KFFC 310000 AAA
TAFFTY
TAF AMD
KFTY 310054Z 3101/3124 VRB03KT P6SM VCSH SCT040 BKN100
      TEMPO 3101/3103 VRB15G25KT 3SM TSRA BKN040CB
     FM310300 00000KT P6SM FEW040 BKN100
     FM311000 00000KT 4SM BR FEW025 SCT250
     FM311400 23004KT P6SM SCT025 SCT250
     FM311800 24007KT P6SM SCT050 SCT150=



000
FTUS42 KFFC 302300
TAFPDK
TAF
KPDK 302320Z 3100/3124 VRB03KT P6SM VCSH SCT040 BKN100
     FM310300 00000KT P6SM FEW040 BKN100
     FM311000 00000KT 4SM BR FEW025 SCT250
     FM311400 23005KT P6SM SCT025 SCT250
     FM311800 24007KT P6SM SCT050 SCT150=



000
FTUS42 KFFC 302300
TAFATL
TAF
KATL 302320Z 3100/0106 15004KT P6SM VCSH SCT040 BKN100
     FM310300 VRB03KT P6SM FEW040 BKN100
     FM311400 23005KT P6SM SCT025 SCT250
     FM311800 24007KT P6SM SCT050 SCT150 PROB30 3120/3124 6SM TSRA
      BKN040CB
     FM010000 25004KT P6SM FEW050 SCT250=



000
FTUS42 KFFC 302300
TAFMCN
TAF
KMCN 302320Z 3100/3124 VRB03KT P6SM VCSH SCT050 BKN100
      TEMPO 3100/3102 VRB15G25KT 6SM TSRA BKN045CB
     FM310300 00000KT P6SM FEW050 SCT100
     FM311000 00000KT 3SM BR SCT010 SCT150
     FM311400 23003KT P6SM SCT020 SCT150
     FM311800 23005KT P6SM SCT050 SCT150=



000
FTUS42 KFFC 302300
TAFRYY
TAF
KRYY 302320Z 3100/3124 VRB04KT P6SM VCSH SCT040 BKN100
     FM310300 00000KT P6SM FEW040 BKN100
     FM311000 00000KT 4SM BR FEW025 SCT250
     FM311400 24005KT P6SM SCT025 SCT250
     FM311800 25007KT P6SM SCT050 SCT150 PROB30 3120/3124 -TSRA
      BKN050CB
      AMD NOT SKED 3104/3112=



000
FTUS42 KFFC 302300
TAFAHN
TAF
KAHN 302320Z 3100/3124 15004KT P6SM VCSH SCT050 BKN100
     FM310300 00000KT P6SM FEW050 SCT100
     FM311000 00000KT 4SM BR SCT010 SCT200
     FM311400 21004KT P6SM SCT020 SCT250
     FM311800 24006KT P6SM SCT045 SCT150=



000
FTUS42 KFFC 302300
TAFCSG
TAF
KCSG 302320Z 3100/3124 VRB03KT P6SM VCSH SCT050 BKN100
      TEMPO 3100/3102 VRB15G25KT 3SM TSRA BKN045CB
     FM310300 00000KT P6SM FEW050 SCT100
     FM311000 00000KT 5SM BR FEW010 SCT150
     FM311400 23003KT P6SM SCT020 SCT150
     FM311800 24006KT P6SM SCT045 SCT150=



000
FTUS42 KFFC 302300
TAFFTY
TAF
KFTY 302320Z 3100/3124 VRB03KT P6SM VCSH SCT040 BKN100
     FM310300 00000KT P6SM FEW040 BKN100
     FM311000 00000KT 4SM BR FEW025 SCT250
     FM311400 23004KT P6SM SCT025 SCT250
     FM311800 24007KT P6SM SCT050 SCT150=



000
FTUS42 KFFC 302100 AAB
TAFATL
TAF AMD
KATL 302136Z 3022/3124 15005KT P6SM VCSH SCT040 BKN100
      TEMPO 3022/3024 VRB10G20KT 6SM -TSRA BKN035CB
     FM310300 VRB03KT P6SM FEW035 BKN100
     FM311400 23005KT P6SM SCT025 SCT250
     FM311800 25007KT P6SM SCT050 SCT150 PROB30 3120/3124 6SM TSRA
      BKN040CB=



000
FTUS42 KFFC 301900 AAA
TAFATL
TAF AMD
KATL 301931Z 3020/3124 17007KT P6SM VCSH SCT035 BKN080
      TEMPO 3020/3024 VRB10G20KT 6SM -TSRA BR BKN020CB
     FM310300 17003KT P6SM FEW035 BKN100
     FM311400 23005KT P6SM SCT025
     FM311800 25007KT P6SM SCT040 PROB30 3120/3124 6SM -TSRA BR
      BKN030CB=



000
FTUS42 KFFC 301700 RRB
TAFCSG
TAF
KCSG 301742Z 3018/3118 22007KT P6SM VCSH SCT035 OVC060
      TEMPO 3021/3101 6SM -TSRA BR BKN025CB
     FM310900 00000KT 6SM BR FEW035 BKN100
     FM311400 21003KT P6SM SCT025=



000
FTUS42 KFFC 301700 RRA
TAFMCN
TAF
KMCN 301741Z 3018/3118 14005KT P6SM VCSH SCT040 BKN070
      TEMPO 3020/3024 6SM -TSRA BR BKN025CB
     FM310100 00000KT P6SM SCT035 BKN100
     FM311000 00000KT 4SM BR SCT100
     FM311400 VRB03KT P6SM SCT025=



000
FTUS42 KFFC 301700 RRA
TAFCSG
TAF
KCSG 301741Z 3018/3118 17007KT P6SM VCSH SCT035 OVC060
      TEMPO 3021/3101 6SM -TSRA BR BKN025CB
     FM310900 00000KT 6SM BR FEW035 BKN100
     FM311400 20003KT P6SM SCT025=



000
FTUS42 KFFC 301700 RRA
TAFAHN
TAF
KAHN 301741Z 3018/3118 14005KT P6SM VCSH SCT040 BKN070
      TEMPO 3020/3024 6SM -TSRA BR BKN025CB
     FM310200 00000KT P6SM SCT035 BKN100
     FM311000 00000KT 4SM BR SCT100
     FM311400 VRB03KT P6SM SCT025=



000
FTUS42 KFFC 301700 RRA
TAFATL
TAF
KATL 301741Z 3018/3124 17007KT P6SM VCSH SCT035 BKN080
      TEMPO 3020/3024 6SM -TSRA BR BKN025CB
     FM310300 17003KT P6SM FEW035 BKN100
     FM311400 23005KT P6SM SCT025
     FM311800 25007KT P6SM SCT040 PROB30 3120/3124 6SM -TSRA BR
      BKN030CB=



000
FTUS42 KFFC 301700 RRA
TAFPDK
TAF
KPDK 301741Z 3018/3118 17006KT P6SM VCSH SCT035 OVC060
      TEMPO 3020/3024 6SM -TSRA BR BKN025CB
     FM310300 00000KT P6SM FEW035 BKN100
     FM311000 00000KT 4SM BR SCT100
     FM311400 23005KT P6SM SCT025=



000
FTUS42 KFFC 301700 RRA
TAFFTY
TAF
KFTY 301741Z 3018/3118 17007KT P6SM VCSH SCT035 OVC060
      TEMPO 3020/3024 6SM -TSRA BR BKN025CB
     FM310300 00000KT P6SM FEW035 BKN100
     FM311000 00000KT 4SM BR SCT100
     FM311400 23005KT P6SM SCT025=



000
FTUS42 KFFC 301700 RRA
TAFRYY
TAF
KRYY 301741Z 3018/3118 17007KT P6SM VCSH SCT035 OVC060
      TEMPO 3020/3024 6SM -TSRA BR BKN025CB
     FM310300 00000KT P6SM FEW035 BKN100
     FM311000 00000KT 4SM BR SCT100
     FM311400 23005KT P6SM SCT025=



000
FTUS42 KFFC 301500 AAA
TAFPDK
TAF AMD
KPDK 301545Z 3016/3112 17004KT P6SM BKN025 BKN100
     FM301800 17006KT P6SM VCSH SCT035 OVC060
      TEMPO 3021/3101 6SM -TSRA BR BKN025CB
     FM310600 00000KT 4SM BR FEW035 BKN100
     FM311100 20003KT P6SM BKN015=



000
FTUS42 KFFC 301500 AAA
TAFRYY
TAF AMD
KRYY 301545Z 3016/3112 17004KT P6SM BKN025 BKN100
     FM301800 17007KT P6SM VCSH SCT035 OVC060
      TEMPO 3021/3101 6SM -TSRA BR BKN025CB
     FM310600 00000KT 4SM BR FEW035 BKN100
     FM311100 20003KT P6SM BKN015=



000
FTUS42 KFFC 301500 AAA
TAFFTY
TAF AMD
KFTY 301544Z 3016/3112 17004KT P6SM BKN025 BKN100
     FM301800 17007KT P6SM VCSH SCT035 OVC060
      TEMPO 3021/3101 6SM -TSRA BR BKN025CB
     FM310600 00000KT 4SM BR FEW035 BKN100
     FM311100 20003KT P6SM BKN015=



000
FTUS42 KFFC 301500 AAB
TAFATL
TAF AMD
KATL 301542Z 3016/3118 17004KT P6SM BKN025 BKN100
     FM301800 17007KT P6SM VCSH SCT035 OVC060
      TEMPO 3021/3101 6SM -TSRA BR BKN025CB
     FM310600 17003KT P6SM SCT035 BKN100
     FM311100 20003KT P6SM BKN015
     FM311400 25005KT P6SM SCT025=



000
FTUS42 KFFC 301300 AAA
TAFATL
TAF AMD
KATL 301354Z 3014/3118 17004KT P6SM SCT025 BKN100
     FM301700 17007KT P6SM VCSH SCT035 OVC060
      TEMPO 3021/3101 6SM -TSRA BR BKN025CB
     FM310600 17003KT P6SM SCT035 BKN100
     FM311100 20003KT P6SM BKN015
     FM311400 25005KT P6SM SCT025=



000
FTUS42 KFFC 301100 RRA
TAFMCN
TAF
KMCN 301143Z 3012/3112 VRB03KT P6SM BKN080
     FM301500 16005KT P6SM SCT030 BKN060 PROB30 3021/3102 6SM TSRA
      BKN045CB
     FM310200 00000KT P6SM BKN045=



000
FTUS42 KFFC 301100 RRA
TAFATL
TAF
KATL 301143Z 3012/3118 17004KT P6SM SCT025 BKN070
     FM301600 17007KT P6SM VCSH SCT035 BKN060 PROB30 3021/3102 6SM
      TSRA BKN045CB
     FM310200 19003KT P6SM BKN035
     FM311500 25005KT P6SM SCT035=



000
FTUS42 KFFC 301100 RRA
TAFCSG
TAF
KCSG 301143Z 3012/3112 00000KT P6SM BKN012
     FM301500 19006KT P6SM VCSH SCT025 BKN050 PROB30 3021/3101 6SM
      TSRA BKN045CB
     FM310200 00000KT P6SM BKN045=



000
FTUS42 KFFC 301100 RRA
TAFAHN
TAF
KAHN 301143Z 3012/3112 VRB03KT P6SM SCT080 SCT250
     FM301600 14005KT P6SM SCT040 BKN060 PROB30 3021/3102 -TSRA
      BKN045CB
     FM310200 00000KT P6SM SCT050 SCT150 BKN250=



000
FTUS42 KFFC 301100 RRA
TAFRYY
TAF
KRYY 301143Z 3012/3112 00000KT P6SM SCT025 BKN070
     FM301600 17006KT P6SM VCSH SCT035 BKN050 PROB30 3021/3102 6SM
      TSRA BKN045CB
     FM310200 00000KT P6SM BKN035=



000
FTUS42 KFFC 301100 RRA
TAFPDK
TAF
KPDK 301143Z 3012/3112 15003KT P6SM SCT025 BKN070
     FM301600 17006KT P6SM VCSH SCT035 BKN050 PROB30 3021/3102 6SM
      TSRA BKN045CB
     FM310200 00000KT P6SM BKN035=



000
FTUS42 KFFC 301100 RRA
TAFFTY
TAF
KFTY 301143Z 3012/3112 00000KT P6SM SCT025 BKN070
     FM301600 17006KT P6SM VCSH SCT035 BKN050 PROB30 3021/3102 6SM
      TSRA BKN045CB
     FM310200 00000KT P6SM BKN035=



000
FTUS42 KFFC 300900 AAB
TAFCSG
TAF AMD
KCSG 300958Z 3010/3106 00000KT P6SM BKN012
     FM301500 19006KT P6SM VCSH SCT025 BKN050 PROB30 3019/3023 6SM
      TSRA BKN045CB
     FM310200 00000KT P6SM BKN045=



000
FTUS42 KFFC 300900 AAA
TAFPDK
TAF AMD
KPDK 300949Z 3010/3106 15003KT P6SM BKN080
     FM301600 17006KT P6SM VCSH SCT035 BKN050 PROB30 3020/3102 6SM
      TSRA BKN045CB
     FM310200 00000KT P6SM BKN035=



000
FTUS42 KFFC 300900 AAA
TAFFTY
TAF AMD
KFTY 300949Z 3010/3106 00000KT P6SM BKN080
     FM301600 17006KT P6SM VCSH SCT035 BKN050 PROB30 3020/3102 6SM
      TSRA BKN045CB
     FM310200 00000KT P6SM BKN035=



000
FTUS42 KFFC 300900 AAA
TAFAHN
TAF AMD
KAHN 300949Z 3010/3106 VRB03KT P6SM SCT080 SCT250
     FM301600 14005KT P6SM SCT035 BKN060 PROB30 3020/3102 -TSRA
      BKN045CB
     FM310200 00000KT P6SM SCT050 SCT150 BKN250=



000
FTUS42 KFFC 300900 AAB
TAFATL
TAF AMD
KATL 300949Z 3010/3112 13003KT P6SM BKN080
     FM301200 14005KT P6SM SCT035 BKN070
     FM301600 17007KT P6SM VCSH SCT035 BKN060 PROB30 3020/3102 6SM
      TSRA BKN045CB
     FM310200 19003KT P6SM BKN035=



000
FTUS42 KFFC 300900 AAA
TAFRYY
TAF AMD
KRYY 300949Z 3010/3106 00000KT P6SM BKN080
     FM301600 17006KT P6SM VCSH SCT035 BKN050 PROB30 3020/3102 6SM
      TSRA BKN045CB
     FM310200 00000KT P6SM BKN035
      AMD NOT SKED TIL 301200=



000
FTUS42 KFFC 300800 AAA
TAFCSG
TAF AMD
KCSG 300802Z 3008/3106 00000KT P6SM SCT025 BKN070
     FM301500 19006KT P6SM VCSH SCT025 BKN050 PROB30 3017/3023 6SM
      TSRA BKN045CB
     FM310200 00000KT P6SM BKN045=



000
FTUS42 KFFC 300800 AAA
TAFATL
TAF AMD
KATL 300802Z 3008/3112 13003KT P6SM BKN080
     FM301200 14005KT P6SM SCT035 BKN070
     FM301600 17007KT P6SM VCSH SCT035 BKN060 PROB30 3018/3024 6SM
      TSRA BKN045CB
     FM310200 19003KT P6SM BKN035=



000
FTUS42 KFFC 300500 RRA
TAFMCN
TAF
KMCN 300550Z 3006/3106 VRB03KT P6SM BKN080
     FM301500 16005KT P6SM SCT030 BKN060 PROB30 3017/3023 6SM TSRA
      BKN045CB
     FM310200 00000KT P6SM BKN045=



000
FTUS42 KFFC 300500 RRA
TAFCSG
TAF
KCSG 300550Z 3006/3106 VRB03KT P6SM BKN080
     FM301500 19006KT P6SM SCT025 BKN050 PROB30 3017/3023 6SM TSRA
      BKN045CB
     FM310200 00000KT P6SM BKN045=



000
FTUS42 KFFC 300500 RRA
TAFRYY
TAF
KRYY 300550Z 3006/3106 00000KT P6SM BKN080
     FM301600 17006KT P6SM VCSH SCT035 BKN050 PROB30 3017/3023 6SM
      TSRA BKN045CB
     FM310200 00000KT P6SM BKN035
      AMD NOT SKED TIL 301200=



000
FTUS42 KFFC 300500 RRA
TAFFTY
TAF
KFTY 300550Z 3006/3106 00000KT P6SM BKN080
     FM301600 17006KT P6SM VCSH SCT035 BKN050 PROB30 3018/3024 6SM
      TSRA BKN045CB
     FM310200 00000KT P6SM BKN035=



000
FTUS42 KFFC 300500 RRA
TAFAHN
TAF
KAHN 300550Z 3006/3106 VRB03KT P6SM SCT080 SCT250
     FM301600 14005KT P6SM SCT035 BKN060 PROB30 3019/3101 -TSRA
      BKN045CB
     FM310200 00000KT P6SM SCT050 SCT150 BKN250=



000
FTUS42 KFFC 300500 RRA
TAFPDK
TAF
KPDK 300550Z 3006/3106 00000KT P6SM BKN080
     FM301600 17006KT P6SM VCSH SCT035 BKN050 PROB30 3018/3024 6SM
      TSRA BKN045CB
     FM310200 00000KT P6SM BKN035=



000
FTUS42 KFFC 300500 RRA
TAFATL
TAF
KATL 300550Z 3006/3112 13004KT P6SM BKN080
     FM301200 14005KT P6SM SCT025 BKN070
     FM301600 17007KT P6SM VCSH SCT035 BKN060 PROB30 3018/3024 6SM
      TSRA BKN045CB
     FM310200 19003KT P6SM BKN035=



000
FTUS42 KFFC 300300 AAB
TAFATL
TAF AMD
KATL 300330Z 3004/3106 13004KT P6SM BKN080
     FM301200 14005KT P6SM SCT025 BKN070
     FM301600 17008KT P6SM VCSH SCT035 BKN060 PROB30 3018/3024 6SM
      TSRA BKN045CB
     FM310000 18005KT P6SM SCT050 SCT150 BKN250=



000
FTUS42 KFFC 300200 AAA
TAFMCN
TAF AMD
KMCN 300233Z 3003/3024 VRB03KT P6SM BKN080
     FM301500 14005KT P6SM SCT030 BKN060 PROB30 3017/3023 6SM TSRA
      BKN045CB=



    US Dept of Commerce
    National Oceanic and Atmospheric Administration
    National Weather Service
    1325 East West Highway
    Silver Spring, MD 20910
    Page Author: NWS Internet Services Team
Disclaimer
Information Quality
Credits
Glossary
Privacy Policy
Freedom of Information Act (FOIA)
About Us
Career Opportunities